sensor_id;sensor_type;location;lat;lon;timestamp;P1;durP1;ratioP1;P2;durP2;ratioP2
35223;SDS011;21367;51.930;8.112;2023-08-21T00:04:49;6.68;;;1.85;;
35223;SDS011;21367;51.930;8.112;2023-08-21T00:09:56;6.15;;;1.60;;
35223;SDS011;21367;51.930;8.112;2023-08-21T00:14:59;8.73;;;2.10;;
35223;SDS011;21367;51.930;8.112;2023-08-21T00:20:04;8.15;;;2.35;;
35223;SDS011;21367;51.930;8.112;2023-08-21T00:30:15;6.43;;;1.92;;
35223;SDS011;21367;51.930;8.112;2023-08-21T00:35:19;13.13;;;1.95;;
35223;SDS011;21367;51.930;8.112;2023-08-21T00:40:25;8.35;;;2.10;;
35223;SDS011;21367;51.930;8.112;2023-08-21T00:45:29;11.43;;;2.25;;
35223;SDS011;21367;51.930;8.112;2023-08-21T00:50:33;5.60;;;1.90;;
35223;SDS011;21367;51.930;8.112;2023-08-21T00:55:39;4.63;;;2.00;;
35223;SDS011;21367;51.930;8.112;2023-08-21T01:00:44;9.05;;;2.08;;
35223;SDS011;21367;51.930;8.112;2023-08-21T01:05:49;6.38;;;1.83;;
35223;SDS011;21367;51.930;8.112;2023-08-21T01:10:56;7.47;;;1.80;;
35223;SDS011;21367;51.930;8.112;2023-08-21T01:16:06;14.13;;;1.98;;
35223;SDS011;21367;51.930;8.112;2023-08-21T01:21:11;14.35;;;2.10;;
35223;SDS011;21367;51.930;8.112;2023-08-21T01:26:18;10.13;;;1.90;;
35223;SDS011;21367;51.930;8.112;2023-08-21T01:31:23;10.80;;;1.77;;
35223;SDS011;21367;51.930;8.112;2023-08-21T01:36:30;6.57;;;1.92;;
35223;SDS011;21367;51.930;8.112;2023-08-21T01:41:37;9.68;;;2.40;;
35223;SDS011;21367;51.930;8.112;2023-08-21T01:46:41;7.53;;;1.60;;
35223;SDS011;21367;51.930;8.112;2023-08-21T01:51:44;11.73;;;2.08;;
35223;SDS011;21367;51.930;8.112;2023-08-21T01:56:51;6.80;;;2.33;;
35223;SDS011;21367;51.930;8.112;2023-08-21T02:01:54;11.48;;;2.35;;
35223;SDS011;21367;51.930;8.112;2023-08-21T02:06:59;9.20;;;1.90;;
35223;SDS011;21367;51.930;8.112;2023-08-21T02:12:05;12.73;;;2.55;;
35223;SDS011;21367;51.930;8.112;2023-08-21T02:17:09;11.38;;;2.50;;
35223;SDS011;21367;51.930;8.112;2023-08-21T02:22:13;15.43;;;2.88;;
35223;SDS011;21367;51.930;8.112;2023-08-21T02:27:19;10.85;;;2.65;;
35223;SDS011;21367;51.930;8.112;2023-08-21T02:32:23;5.75;;;2.75;;
35223;SDS011;21367;51.930;8.112;2023-08-21T02:37:26;7.57;;;3.13;;
35223;SDS011;21367;51.930;8.112;2023-08-21T02:42:33;13.85;;;3.50;;
35223;SDS011;21367;51.930;8.112;2023-08-21T02:47:36;13.10;;;3.13;;
35223;SDS011;21367;51.930;8.112;2023-08-21T02:52:41;14.02;;;3.50;;
35223;SDS011;21367;51.930;8.112;2023-08-21T02:57:47;15.38;;;4.25;;
35223;SDS011;21367;51.930;8.112;2023-08-21T03:02:51;17.08;;;5.80;;
35223;SDS011;21367;51.930;8.112;2023-08-21T03:07:54;17.55;;;5.75;;
35223;SDS011;21367;51.930;8.112;2023-08-21T03:13:01;18.88;;;4.63;;
35223;SDS011;21367;51.930;8.112;2023-08-21T03:18:05;15.30;;;4.32;;
35223;SDS011;21367;51.930;8.112;2023-08-21T03:23:09;13.00;;;3.85;;
35223;SDS011;21367;51.930;8.112;2023-08-21T03:28:15;15.70;;;4.32;;
35223;SDS011;21367;51.930;8.112;2023-08-21T03:33:19;12.93;;;3.60;;
35223;SDS011;21367;51.930;8.112;2023-08-21T03:38:23;13.52;;;3.17;;
35223;SDS011;21367;51.930;8.112;2023-08-21T03:43:29;12.25;;;3.85;;
35223;SDS011;21367;51.930;8.112;2023-08-21T03:48:33;12.80;;;3.60;;
35223;SDS011;21367;51.930;8.112;2023-08-21T03:53:37;8.43;;;3.50;;
35223;SDS011;21367;51.930;8.112;2023-08-21T03:58:43;8.35;;;3.42;;
35223;SDS011;21367;51.930;8.112;2023-08-21T04:03:48;14.10;;;4.15;;
35223;SDS011;21367;51.930;8.112;2023-08-21T04:08:52;14.15;;;4.70;;
35223;SDS011;21367;51.930;8.112;2023-08-21T04:13:58;16.73;;;4.80;;
35223;SDS011;21367;51.930;8.112;2023-08-21T04:19:02;16.15;;;3.92;;
35223;SDS011;21367;51.930;8.112;2023-08-21T04:24:06;12.13;;;3.47;;
35223;SDS011;21367;51.930;8.112;2023-08-21T04:29:13;16.08;;;3.55;;
35223;SDS011;21367;51.930;8.112;2023-08-21T04:34:16;19.33;;;3.88;;
35223;SDS011;21367;51.930;8.112;2023-08-21T04:39:20;13.25;;;3.83;;
35223;SDS011;21367;51.930;8.112;2023-08-21T04:44:27;15.90;;;3.95;;
35223;SDS011;21367;51.930;8.112;2023-08-21T04:49:35;17.65;;;3.67;;
35223;SDS011;21367;51.930;8.112;2023-08-21T04:54:38;19.08;;;3.80;;
35223;SDS011;21367;51.930;8.112;2023-08-21T04:59:46;13.27;;;4.57;;
35223;SDS011;21367;51.930;8.112;2023-08-21T05:04:52;9.95;;;3.83;;
35223;SDS011;21367;51.930;8.112;2023-08-21T05:09:58;17.25;;;4.03;;
35223;SDS011;21367;51.930;8.112;2023-08-21T05:15:07;9.45;;;2.63;;
35223;SDS011;21367;51.930;8.112;2023-08-21T05:20:12;10.77;;;3.20;;
35223;SDS011;21367;51.930;8.112;2023-08-21T05:25:18;11.13;;;2.70;;
35223;SDS011;21367;51.930;8.112;2023-08-21T05:30:24;15.10;;;3.10;;
35223;SDS011;21367;51.930;8.112;2023-08-21T05:35:28;11.57;;;2.90;;
35223;SDS011;21367;51.930;8.112;2023-08-21T05:40:32;15.63;;;3.42;;
35223;SDS011;21367;51.930;8.112;2023-08-21T05:45:39;13.82;;;2.60;;
35223;SDS011;21367;51.930;8.112;2023-08-21T05:50:42;9.80;;;2.30;;
35223;SDS011;21367;51.930;8.112;2023-08-21T05:55:46;7.90;;;2.65;;
35223;SDS011;21367;51.930;8.112;2023-08-21T06:00:52;9.68;;;2.58;;
35223;SDS011;21367;51.930;8.112;2023-08-21T06:05:56;11.80;;;2.30;;
35223;SDS011;21367;51.930;8.112;2023-08-21T06:11:00;3.97;;;1.67;;
35223;SDS011;21367;51.930;8.112;2023-08-21T06:16:06;11.77;;;2.55;;
35223;SDS011;21367;51.930;8.112;2023-08-21T06:21:12;9.25;;;2.30;;
35223;SDS011;21367;51.930;8.112;2023-08-21T06:26:15;7.40;;;2.28;;
35223;SDS011;21367;51.930;8.112;2023-08-21T06:31:21;12.07;;;2.10;;
35223;SDS011;21367;51.930;8.112;2023-08-21T06:36:26;5.30;;;2.22;;
35223;SDS011;21367;51.930;8.112;2023-08-21T06:41:29;7.18;;;2.08;;
35223;SDS011;21367;51.930;8.112;2023-08-21T06:46:35;7.70;;;2.15;;
35223;SDS011;21367;51.930;8.112;2023-08-21T06:51:39;12.50;;;2.33;;
35223;SDS011;21367;51.930;8.112;2023-08-21T06:56:42;8.38;;;2.17;;
35223;SDS011;21367;51.930;8.112;2023-08-21T07:01:49;11.50;;;1.98;;
35223;SDS011;21367;51.930;8.112;2023-08-21T07:06:53;7.40;;;1.83;;
35223;SDS011;21367;51.930;8.112;2023-08-21T07:11:57;9.73;;;2.20;;
35223;SDS011;21367;51.930;8.112;2023-08-21T07:17:05;7.78;;;1.58;;
35223;SDS011;21367;51.930;8.112;2023-08-21T07:22:08;10.27;;;1.60;;
35223;SDS011;21367;51.930;8.112;2023-08-21T07:27:12;10.95;;;1.77;;
35223;SDS011;21367;51.930;8.112;2023-08-21T07:32:18;11.30;;;1.35;;
35223;SDS011;21367;51.930;8.112;2023-08-21T07:37:22;10.07;;;1.80;;
35223;SDS011;21367;51.930;8.112;2023-08-21T07:42:25;11.18;;;1.80;;
35223;SDS011;21367;51.930;8.112;2023-08-21T07:47:32;11.93;;;2.15;;
35223;SDS011;21367;51.930;8.112;2023-08-21T07:52:36;8.40;;;1.50;;
35223;SDS011;21367;51.930;8.112;2023-08-21T07:57:39;11.05;;;1.73;;
35223;SDS011;21367;51.930;8.112;2023-08-21T08:02:46;5.63;;;1.52;;
35223;SDS011;21367;51.930;8.112;2023-08-21T08:07:50;7.63;;;1.58;;
35223;SDS011;21367;51.930;8.112;2023-08-21T08:12:53;15.30;;;1.60;;
35223;SDS011;21367;51.930;8.112;2023-08-21T08:18:00;11.43;;;1.50;;
35223;SDS011;21367;51.930;8.112;2023-08-21T08:23:03;12.90;;;1.73;;
35223;SDS011;21367;51.930;8.112;2023-08-21T08:28:07;13.18;;;1.60;;
35223;SDS011;21367;51.930;8.112;2023-08-21T08:33:13;8.32;;;1.60;;
35223;SDS011;21367;51.930;8.112;2023-08-21T08:38:17;11.90;;;1.70;;
35223;SDS011;21367;51.930;8.112;2023-08-21T08:43:21;9.45;;;1.90;;
35223;SDS011;21367;51.930;8.112;2023-08-21T08:48:30;13.15;;;1.40;;
35223;SDS011;21367;51.930;8.112;2023-08-21T08:53:34;7.75;;;1.80;;
35223;SDS011;21367;51.930;8.112;2023-08-21T08:58:39;7.00;;;1.27;;
35223;SDS011;21367;51.930;8.112;2023-08-21T09:03:46;12.93;;;1.60;;
35223;SDS011;21367;51.930;8.112;2023-08-21T09:08:53;10.27;;;1.30;;
35223;SDS011;21367;51.930;8.112;2023-08-21T09:13:58;10.25;;;1.27;;
35223;SDS011;21367;51.930;8.112;2023-08-21T09:19:04;9.40;;;1.77;;
35223;SDS011;21367;51.930;8.112;2023-08-21T09:24:08;12.52;;;1.55;;
35223;SDS011;21367;51.930;8.112;2023-08-21T09:29:11;7.65;;;1.10;;
35223;SDS011;21367;51.930;8.112;2023-08-21T09:34:18;9.00;;;1.77;;
35223;SDS011;21367;51.930;8.112;2023-08-21T09:39:22;9.18;;;1.67;;
35223;SDS011;21367;51.930;8.112;2023-08-21T09:44:26;6.38;;;1.48;;
35223;SDS011;21367;51.930;8.112;2023-08-21T09:49:33;5.28;;;1.00;;
35223;SDS011;21367;51.930;8.112;2023-08-21T09:54:38;7.65;;;1.20;;
35223;SDS011;21367;51.930;8.112;2023-08-21T09:59:42;7.18;;;1.02;;
35223;SDS011;21367;51.930;8.112;2023-08-21T10:04:49;5.88;;;1.45;;
35223;SDS011;21367;51.930;8.112;2023-08-21T10:09:55;10.73;;;1.60;;
35223;SDS011;21367;51.930;8.112;2023-08-21T10:14:59;15.93;;;1.60;;
35223;SDS011;21367;51.930;8.112;2023-08-21T10:20:07;9.25;;;1.77;;
35223;SDS011;21367;51.930;8.112;2023-08-21T10:25:15;8.75;;;1.30;;
35223;SDS011;21367;51.930;8.112;2023-08-21T10:30:21;8.20;;;1.40;;
35223;SDS011;21367;51.930;8.112;2023-08-21T10:35:31;8.02;;;1.55;;
35223;SDS011;21367;51.930;8.112;2023-08-21T10:40:35;9.85;;;1.60;;
35223;SDS011;21367;51.930;8.112;2023-08-21T10:45:45;7.43;;;1.33;;
35223;SDS011;21367;51.930;8.112;2023-08-21T10:51:00;12.25;;;1.25;;
35223;SDS011;21367;51.930;8.112;2023-08-21T10:56:06;15.85;;;2.15;;
35223;SDS011;21367;51.930;8.112;2023-08-21T11:01:09;8.88;;;1.27;;
35223;SDS011;21367;51.930;8.112;2023-08-21T11:06:18;9.18;;;1.55;;
35223;SDS011;21367;51.930;8.112;2023-08-21T11:11:22;11.07;;;1.67;;
35223;SDS011;21367;51.930;8.112;2023-08-21T11:16:27;6.47;;;1.27;;
35223;SDS011;21367;51.930;8.112;2023-08-21T11:21:34;6.80;;;1.40;;
35223;SDS011;21367;51.930;8.112;2023-08-21T11:26:37;10.75;;;1.75;;
35223;SDS011;21367;51.930;8.112;2023-08-21T11:31:41;9.23;;;1.27;;
35223;SDS011;21367;51.930;8.112;2023-08-21T11:36:47;9.85;;;1.40;;
35223;SDS011;21367;51.930;8.112;2023-08-21T11:41:54;10.82;;;1.75;;
35223;SDS011;21367;51.930;8.112;2023-08-21T11:46:59;8.40;;;1.33;;
35223;SDS011;21367;51.930;8.112;2023-08-21T11:57:11;16.92;;;1.90;;
35223;SDS011;21367;51.930;8.112;2023-08-21T12:02:16;17.02;;;1.30;;
35223;SDS011;21367;51.930;8.112;2023-08-21T12:07:24;5.25;;;1.52;;
35223;SDS011;21367;51.930;8.112;2023-08-21T12:12:27;8.13;;;1.30;;
35223;SDS011;21367;51.930;8.112;2023-08-21T12:17:31;9.05;;;1.42;;
35223;SDS011;21367;51.930;8.112;2023-08-21T12:22:37;7.05;;;1.50;;
35223;SDS011;21367;51.930;8.112;2023-08-21T12:27:42;5.68;;;1.27;;
35223;SDS011;21367;51.930;8.112;2023-08-21T12:32:46;9.40;;;1.48;;
35223;SDS011;21367;51.930;8.112;2023-08-21T12:37:55;11.07;;;1.50;;
35223;SDS011;21367;51.930;8.112;2023-08-21T12:43:05;7.85;;;1.88;;
35223;SDS011;21367;51.930;8.112;2023-08-21T12:48:09;4.00;;;1.23;;
35223;SDS011;21367;51.930;8.112;2023-08-21T12:53:16;7.05;;;1.85;;
35223;SDS011;21367;51.930;8.112;2023-08-21T12:58:20;6.95;;;1.95;;
35223;SDS011;21367;51.930;8.112;2023-08-21T13:03:23;9.52;;;1.60;;
35223;SDS011;21367;51.930;8.112;2023-08-21T13:08:29;7.90;;;1.63;;
35223;SDS011;21367;51.930;8.112;2023-08-21T13:13:33;5.18;;;1.33;;
35223;SDS011;21367;51.930;8.112;2023-08-21T13:18:36;9.10;;;1.50;;
35223;SDS011;21367;51.930;8.112;2023-08-21T13:23:43;13.70;;;1.43;;
35223;SDS011;21367;51.930;8.112;2023-08-21T13:28:46;7.72;;;1.58;;
35223;SDS011;21367;51.930;8.112;2023-08-21T13:33:50;8.07;;;1.87;;
35223;SDS011;21367;51.930;8.112;2023-08-21T13:38:56;7.13;;;1.73;;
35223;SDS011;21367;51.930;8.112;2023-08-21T13:44:01;8.07;;;1.70;;
35223;SDS011;21367;51.930;8.112;2023-08-21T13:49:04;6.53;;;1.60;;
35223;SDS011;21367;51.930;8.112;2023-08-21T13:54:11;9.07;;;1.60;;
35223;SDS011;21367;51.930;8.112;2023-08-21T13:59:14;6.72;;;1.77;;
35223;SDS011;21367;51.930;8.112;2023-08-21T14:04:18;3.33;;;1.50;;
35223;SDS011;21367;51.930;8.112;2023-08-21T14:09:24;8.23;;;1.45;;
35223;SDS011;21367;51.930;8.112;2023-08-21T14:14:28;7.97;;;1.90;;
35223;SDS011;21367;51.930;8.112;2023-08-21T14:19:32;8.23;;;1.70;;
35223;SDS011;21367;51.930;8.112;2023-08-21T14:24:38;8.33;;;1.27;;
35223;SDS011;21367;51.930;8.112;2023-08-21T14:29:42;8.50;;;2.08;;
35223;SDS011;21367;51.930;8.112;2023-08-21T14:34:46;6.03;;;1.50;;
35223;SDS011;21367;51.930;8.112;2023-08-21T14:39:52;8.27;;;1.70;;
35223;SDS011;21367;51.930;8.112;2023-08-21T14:44:55;11.43;;;2.13;;
35223;SDS011;21367;51.930;8.112;2023-08-21T14:49:59;7.70;;;1.20;;
35223;SDS011;21367;51.930;8.112;2023-08-21T14:55:06;8.17;;;1.30;;
35223;SDS011;21367;51.930;8.112;2023-08-21T15:00:11;13.65;;;2.05;;
35223;SDS011;21367;51.930;8.112;2023-08-21T15:05:17;7.40;;;1.75;;
35223;SDS011;21367;51.930;8.112;2023-08-21T15:10:25;11.48;;;1.67;;
35223;SDS011;21367;51.930;8.112;2023-08-21T15:15:28;5.57;;;1.30;;
35223;SDS011;21367;51.930;8.112;2023-08-21T15:20:32;6.20;;;1.40;;
35223;SDS011;21367;51.930;8.112;2023-08-21T15:25:41;5.97;;;1.50;;
35223;SDS011;21367;51.930;8.112;2023-08-21T15:30:44;5.47;;;1.48;;
35223;SDS011;21367;51.930;8.112;2023-08-21T15:35:48;7.20;;;1.40;;
35223;SDS011;21367;51.930;8.112;2023-08-21T15:40:54;6.47;;;1.27;;
35223;SDS011;21367;51.930;8.112;2023-08-21T15:45:58;3.85;;;1.15;;
35223;SDS011;21367;51.930;8.112;2023-08-21T15:51:02;5.87;;;1.40;;
35223;SDS011;21367;51.930;8.112;2023-08-21T15:56:08;9.13;;;1.38;;
35223;SDS011;21367;51.930;8.112;2023-08-21T16:01:12;12.43;;;1.52;;
35223;SDS011;21367;51.930;8.112;2023-08-21T16:06:16;8.13;;;1.70;;
35223;SDS011;21367;51.930;8.112;2023-08-21T16:11:22;9.10;;;1.55;;
35223;SDS011;21367;51.930;8.112;2023-08-21T16:16:25;9.70;;;1.50;;
35223;SDS011;21367;51.930;8.112;2023-08-21T16:21:29;9.48;;;1.67;;
35223;SDS011;21367;51.930;8.112;2023-08-21T16:26:36;11.47;;;1.80;;
35223;SDS011;21367;51.930;8.112;2023-08-21T16:31:39;13.90;;;1.92;;
35223;SDS011;21367;51.930;8.112;2023-08-21T16:36:44;7.88;;;1.42;;
35223;SDS011;21367;51.930;8.112;2023-08-21T16:41:51;5.28;;;1.50;;
35223;SDS011;21367;51.930;8.112;2023-08-21T16:46:55;11.15;;;1.80;;
35223;SDS011;21367;51.930;8.112;2023-08-21T16:51:58;7.88;;;1.15;;
35223;SDS011;21367;51.930;8.112;2023-08-21T16:57:06;16.60;;;2.80;;
35223;SDS011;21367;51.930;8.112;2023-08-21T17:02:10;6.82;;;1.38;;
35223;SDS011;21367;51.930;8.112;2023-08-21T17:07:14;6.80;;;1.48;;
35223;SDS011;21367;51.930;8.112;2023-08-21T17:12:20;8.82;;;1.48;;
35223;SDS011;21367;51.930;8.112;2023-08-21T17:17:24;9.18;;;1.48;;
35223;SDS011;21367;51.930;8.112;2023-08-21T17:22:28;6.35;;;1.13;;
35223;SDS011;21367;51.930;8.112;2023-08-21T17:27:34;7.03;;;1.27;;
35223;SDS011;21367;51.930;8.112;2023-08-21T17:32:38;7.00;;;1.42;;
35223;SDS011;21367;51.930;8.112;2023-08-21T17:37:41;4.75;;;1.25;;
35223;SDS011;21367;51.930;8.112;2023-08-21T17:42:48;11.68;;;1.30;;
35223;SDS011;21367;51.930;8.112;2023-08-21T17:47:51;9.45;;;1.38;;
35223;SDS011;21367;51.930;8.112;2023-08-21T17:52:55;11.10;;;1.75;;
35223;SDS011;21367;51.930;8.112;2023-08-21T17:58:05;15.93;;;1.60;;
35223;SDS011;21367;51.930;8.112;2023-08-21T18:03:09;12.38;;;1.38;;
35223;SDS011;21367;51.930;8.112;2023-08-21T18:08:13;9.05;;;1.45;;
35223;SDS011;21367;51.930;8.112;2023-08-21T18:13:19;26.98;;;3.13;;
35223;SDS011;21367;51.930;8.112;2023-08-21T18:18:23;9.38;;;1.40;;
35223;SDS011;21367;51.930;8.112;2023-08-21T18:23:29;8.05;;;1.70;;
35223;SDS011;21367;51.930;8.112;2023-08-21T18:28:38;11.48;;;1.35;;
35223;SDS011;21367;51.930;8.112;2023-08-21T18:33:41;15.65;;;1.58;;
35223;SDS011;21367;51.930;8.112;2023-08-21T18:38:45;9.48;;;1.83;;
35223;SDS011;21367;51.930;8.112;2023-08-21T18:43:52;9.23;;;1.42;;
35223;SDS011;21367;51.930;8.112;2023-08-21T18:48:56;5.50;;;1.50;;
35223;SDS011;21367;51.930;8.112;2023-08-21T18:53:59;11.98;;;1.63;;
35223;SDS011;21367;51.930;8.112;2023-08-21T18:59:08;17.67;;;1.67;;
35223;SDS011;21367;51.930;8.112;2023-08-21T19:04:12;10.02;;;1.52;;
35223;SDS011;21367;51.930;8.112;2023-08-21T19:09:16;14.18;;;1.70;;
35223;SDS011;21367;51.930;8.112;2023-08-21T19:14:22;7.93;;;1.50;;
35223;SDS011;21367;51.930;8.112;2023-08-21T19:19:26;8.13;;;1.55;;
35223;SDS011;21367;51.930;8.112;2023-08-21T19:24:30;12.65;;;1.75;;
35223;SDS011;21367;51.930;8.112;2023-08-21T19:29:36;15.98;;;1.95;;
35223;SDS011;21367;51.930;8.112;2023-08-21T19:34:40;7.88;;;1.50;;
35223;SDS011;21367;51.930;8.112;2023-08-21T19:39:44;18.25;;;2.63;;
35223;SDS011;21367;51.930;8.112;2023-08-21T19:44:50;14.77;;;1.67;;
35223;SDS011;21367;51.930;8.112;2023-08-21T19:49:54;8.57;;;1.40;;
35223;SDS011;21367;51.930;8.112;2023-08-21T19:54:58;13.25;;;1.88;;
35223;SDS011;21367;51.930;8.112;2023-08-21T20:00:04;24.40;;;2.58;;
35223;SDS011;21367;51.930;8.112;2023-08-21T20:05:10;15.80;;;1.65;;
35223;SDS011;21367;51.930;8.112;2023-08-21T20:10:14;16.52;;;1.73;;
35223;SDS011;21367;51.930;8.112;2023-08-21T20:15:20;9.00;;;2.05;;
35223;SDS011;21367;51.930;8.112;2023-08-21T20:20:24;7.60;;;1.70;;
35223;SDS011;21367;51.930;8.112;2023-08-21T20:25:28;6.72;;;1.48;;
35223;SDS011;21367;51.930;8.112;2023-08-21T20:30:35;9.85;;;1.85;;
35223;SDS011;21367;51.930;8.112;2023-08-21T20:35:38;9.73;;;1.70;;
35223;SDS011;21367;51.930;8.112;2023-08-21T20:40:42;13.60;;;1.85;;
35223;SDS011;21367;51.930;8.112;2023-08-21T20:45:49;17.75;;;2.08;;
35223;SDS011;21367;51.930;8.112;2023-08-21T20:50:54;8.23;;;1.55;;
35223;SDS011;21367;51.930;8.112;2023-08-21T20:55:58;13.35;;;2.47;;
35223;SDS011;21367;51.930;8.112;2023-08-21T21:01:06;7.35;;;2.00;;
35223;SDS011;21367;51.930;8.112;2023-08-21T21:06:10;12.77;;;2.13;;
35223;SDS011;21367;51.930;8.112;2023-08-21T21:11:14;6.18;;;1.98;;
35223;SDS011;21367;51.930;8.112;2023-08-21T21:16:20;10.93;;;2.15;;
35223;SDS011;21367;51.930;8.112;2023-08-21T21:21:24;12.07;;;1.95;;
35223;SDS011;21367;51.930;8.112;2023-08-21T21:26:27;7.78;;;1.60;;
35223;SDS011;21367;51.930;8.112;2023-08-21T21:31:34;6.78;;;2.30;;
35223;SDS011;21367;51.930;8.112;2023-08-21T21:36:37;9.45;;;2.10;;
35223;SDS011;21367;51.930;8.112;2023-08-21T21:41:44;8.38;;;1.92;;
35223;SDS011;21367;51.930;8.112;2023-08-21T21:46:50;10.75;;;1.88;;
35223;SDS011;21367;51.930;8.112;2023-08-21T21:51:54;10.02;;;1.92;;
35223;SDS011;21367;51.930;8.112;2023-08-21T21:56:57;18.33;;;2.28;;
35223;SDS011;21367;51.930;8.112;2023-08-21T22:07:09;10.15;;;2.30;;
35223;SDS011;21367;51.930;8.112;2023-08-21T22:12:14;16.27;;;2.70;;
35223;SDS011;21367;51.930;8.112;2023-08-21T22:17:20;12.23;;;2.17;;
35223;SDS011;21367;51.930;8.112;2023-08-21T22:22:23;13.52;;;2.22;;
35223;SDS011;21367;51.930;8.112;2023-08-21T22:27:27;10.82;;;2.00;;
35223;SDS011;21367;51.930;8.112;2023-08-21T22:32:33;11.40;;;2.13;;
35223;SDS011;21367;51.930;8.112;2023-08-21T22:37:37;9.27;;;2.17;;
35223;SDS011;21367;51.930;8.112;2023-08-21T22:42:41;11.25;;;2.50;;
35223;SDS011;21367;51.930;8.112;2023-08-21T22:47:47;13.10;;;2.40;;
35223;SDS011;21367;51.930;8.112;2023-08-21T22:52:50;14.35;;;2.28;;
35223;SDS011;21367;51.930;8.112;2023-08-21T22:57:54;5.40;;;1.98;;
35223;SDS011;21367;51.930;8.112;2023-08-21T23:03:01;8.35;;;2.28;;
35223;SDS011;21367;51.930;8.112;2023-08-21T23:08:04;10.57;;;2.40;;
35223;SDS011;21367;51.930;8.112;2023-08-21T23:13:08;12.15;;;2.47;;
35223;SDS011;21367;51.930;8.112;2023-08-21T23:18:14;4.55;;;1.60;;
35223;SDS011;21367;51.930;8.112;2023-08-21T23:23:18;8.85;;;2.17;;
35223;SDS011;21367;51.930;8.112;2023-08-21T23:28:22;10.98;;;2.40;;
35223;SDS011;21367;51.930;8.112;2023-08-21T23:33:28;11.48;;;2.40;;
35223;SDS011;21367;51.930;8.112;2023-08-21T23:38:32;12.93;;;2.55;;
35223;SDS011;21367;51.930;8.112;2023-08-21T23:43:36;17.33;;;2.67;;
35223;SDS011;21367;51.930;8.112;2023-08-21T23:48:43;5.15;;;2.58;;
35223;SDS011;21367;51.930;8.112;2023-08-21T23:53:46;12.15;;;3.72;;
35223;SDS011;21367;51.930;8.112;2023-08-21T23:58:51;15.05;;;2.40;;
